createdAt,value
2018-11-26T00:00:39.874Z,131.22
2018-11-26T00:01:45.298Z,123.28
2018-11-26T00:02:51.075Z,140.57
2018-11-26T00:03:56.369Z,146.40
2018-11-26T00:05:02.036Z,136.62
2018-11-26T00:06:22.307Z,126.72
2018-11-26T00:07:28.507Z,111.10
2018-11-26T00:08:33.904Z,133.60
2018-11-26T00:09:39.324Z,114.55
2018-11-26T00:10:55.034Z,124.07
2018-11-26T00:12:01.719Z,118.40
2018-11-26T00:13:07.323Z,107.17
2018-11-26T00:14:12.734Z,109.78
2018-11-26T00:15:18.113Z,108.25
2018-11-26T00:16:23.267Z,108.80
2018-11-26T00:17:28.469Z,113.10
2018-11-26T00:18:33.682Z,103.25
2018-11-26T00:19:38.902Z,103.50
2018-11-26T00:20:44.071Z,111.47
2018-11-26T00:21:49.118Z,100.05
2018-11-26T00:22:54.313Z,100.90
2018-11-26T00:23:59.290Z,92.67
2018-11-26T00:25:04.447Z,105.78
2018-11-26T00:26:09.486Z,99.47
2018-11-26T00:27:14.479Z,95.38
2018-11-26T00:28:19.470Z,98.78
2018-11-26T00:29:24.591Z,90.30
2018-11-26T00:30:29.614Z,100.38
2018-11-26T00:31:34.638Z,91.82
2018-11-26T00:32:40.719Z,96.72
2018-11-26T00:33:45.782Z,106.12
2018-11-26T00:34:50.825Z,93.47
2018-11-26T00:35:55.961Z,92.60
2018-11-26T00:37:00.986Z,100.47
2018-11-26T00:38:06.072Z,95.40
2018-11-26T00:39:12.282Z,89.10
2018-11-26T00:40:17.366Z,98.42
2018-11-26T00:41:22.406Z,88.25
2018-11-26T00:42:27.419Z,94.22
2018-11-26T00:43:33.954Z,98.35
2018-11-26T00:44:38.980Z,98.80
2018-11-26T00:45:44.188Z,102.10
2018-11-26T00:46:49.499Z,96.57
2018-11-26T00:47:54.651Z,104.83
2018-11-26T00:48:59.726Z,104.17
2018-11-26T00:50:05.273Z,90.17
2018-11-26T00:51:10.490Z,100.78
2018-11-26T00:52:15.692Z,101.47
2018-11-26T00:53:21.000Z,98.20
2018-11-26T00:54:26.149Z,108.87
2018-11-26T00:55:32.267Z,101.20
2018-11-26T00:56:38.351Z,101.38
2018-11-26T00:57:43.604Z,105.00
2018-11-26T00:58:48.855Z,99.75
2018-11-26T00:59:54.052Z,105.32
2018-11-26T01:00:59.225Z,109.75
2018-11-26T01:02:04.648Z,103.35
2018-11-26T01:03:09.900Z,110.05
2018-11-26T01:04:15.095Z,106.30
2018-11-26T01:05:35.079Z,113.68
2018-11-26T01:06:40.569Z,109.80
2018-11-26T01:07:45.755Z,119.95
2018-11-26T01:08:51.021Z,106.22
2018-11-26T01:09:56.035Z,109.83
2018-11-26T01:11:01.029Z,123.80
2018-11-26T01:12:06.325Z,113.03
2018-11-26T01:13:11.927Z,120.55
2018-11-26T01:14:17.259Z,101.80
2018-11-26T01:15:22.464Z,104.12
2018-11-26T01:16:27.635Z,114.85
2018-11-26T01:17:32.856Z,106.20
2018-11-26T01:18:38.153Z,95.45
2018-11-26T01:19:43.375Z,109.85
2018-11-26T01:20:48.489Z,96.17
2018-11-26T01:21:53.810Z,93.47
2018-11-26T01:23:00.184Z,104.72
2018-11-26T01:24:05.565Z,96.12
2018-11-26T01:25:11.270Z,109.90
2018-11-26T01:26:16.403Z,108.60
2018-11-26T01:27:21.565Z,105.80
2018-11-26T01:28:27.039Z,97.78
2018-11-26T01:29:32.389Z,89.47
2018-11-26T01:30:38.003Z,94.92
2018-11-26T01:31:43.326Z,99.67
2018-11-26T01:32:48.532Z,87.20
2018-11-26T01:33:53.767Z,96.42
2018-11-26T01:34:58.919Z,89.13
2018-11-26T01:36:04.132Z,95.85
2018-11-26T01:37:09.272Z,94.50
2018-11-26T01:38:14.386Z,85.77
2018-11-26T01:39:19.626Z,91.15
2018-11-26T01:40:30.511Z,92.97
2018-11-26T01:41:35.695Z,87.00
2018-11-26T01:42:41.569Z,82.70
2018-11-26T01:43:46.769Z,83.80
2018-11-26T01:44:52.016Z,96.28
2018-11-26T01:45:57.147Z,98.58
2018-11-26T01:47:02.986Z,89.47
2018-11-26T01:48:08.260Z,91.92
2018-11-26T01:49:13.414Z,86.37
2018-11-26T01:50:18.563Z,88.70
2018-11-26T01:51:23.786Z,82.78
2018-11-26T01:52:29.575Z,92.70
2018-11-26T01:53:34.737Z,92.97
2018-11-26T01:54:39.898Z,91.55
2018-11-26T01:55:45.124Z,88.52
2018-11-26T01:56:50.633Z,91.95
2018-11-26T01:57:55.787Z,81.10
2018-11-26T01:59:00.972Z,85.17
2018-11-26T02:00:37.847Z,96.65
2018-11-26T02:01:43.063Z,95.83
2018-11-26T02:02:48.388Z,97.35
2018-11-26T02:03:53.516Z,99.77
2018-11-26T02:04:58.813Z,93.97
2018-11-26T02:06:03.923Z,100.20
2018-11-26T02:07:09.132Z,97.00
2018-11-26T02:08:14.401Z,96.12
2018-11-26T02:09:19.825Z,90.95
2018-11-26T02:10:25.097Z,94.45
2018-11-26T02:11:30.320Z,90.42
2018-11-26T02:12:35.717Z,90.53
2018-11-26T02:13:40.797Z,94.52
2018-11-26T02:14:46.121Z,94.15
2018-11-26T02:15:51.216Z,97.12
2018-11-26T02:16:56.405Z,84.75
2018-11-26T02:18:01.531Z,92.17
2018-11-26T02:19:07.072Z,102.10
2018-11-26T02:20:12.358Z,98.75
2018-11-26T02:21:17.390Z,80.25
2018-11-26T02:22:22.398Z,90.70
2018-11-26T02:23:28.786Z,76.05
2018-11-26T02:24:33.874Z,73.35
2018-11-26T02:25:39.090Z,75.55
2018-11-26T02:26:44.154Z,69.27
2018-11-26T02:27:49.142Z,67.42
2018-11-26T02:28:54.124Z,61.92
2018-11-26T02:29:59.092Z,56.77
2018-11-26T02:31:04.754Z,54.42
2018-11-26T02:32:09.938Z,58.28
2018-11-26T02:33:14.903Z,52.75
2018-11-26T02:34:19.899Z,51.75
2018-11-26T02:35:24.930Z,57.73
2018-11-26T02:36:30.001Z,55.15
2018-11-26T02:37:35.572Z,52.15
2018-11-26T02:38:40.801Z,50.23
2018-11-26T02:39:46.468Z,51.88
2018-11-26T02:40:51.587Z,55.25
2018-11-26T02:41:56.765Z,56.48
2018-11-26T02:43:01.921Z,52.67
2018-11-26T02:44:07.073Z,49.10
2018-11-26T02:45:12.248Z,50.92
2018-11-26T02:46:17.637Z,44.70
2018-11-26T02:47:23.324Z,51.37
2018-11-26T02:48:28.572Z,54.25
2018-11-26T02:49:33.793Z,49.45
2018-11-26T02:50:39.916Z,46.50
2018-11-26T02:51:45.124Z,57.25
2018-11-26T02:52:50.617Z,57.10
2018-11-26T02:53:56.039Z,49.67
2018-11-26T02:55:01.970Z,62.03
2018-11-26T02:56:07.121Z,60.05
2018-11-26T02:57:12.662Z,64.22
2018-11-26T02:58:18.261Z,65.45
2018-11-26T02:59:23.935Z,61.13
2018-11-26T03:00:29.045Z,60.45
2018-11-26T03:01:34.213Z,69.40
2018-11-26T03:02:39.359Z,70.30
2018-11-26T03:03:44.502Z,69.95
2018-11-26T03:04:49.628Z,64.65
2018-11-26T03:05:54.737Z,67.05
2018-11-26T03:06:59.859Z,71.15
2018-11-26T03:08:05.077Z,67.70
2018-11-26T03:09:10.230Z,66.10
2018-11-26T03:10:15.313Z,65.55
2018-11-26T03:11:20.507Z,63.40
2018-11-26T03:12:25.708Z,63.05
2018-11-26T03:13:30.863Z,59.80
2018-11-26T03:14:36.057Z,60.67
2018-11-26T03:18:10.675Z,48.58
2018-11-26T03:19:15.764Z,51.15
2018-11-26T03:20:20.889Z,63.30
2018-11-26T03:21:26.000Z,57.98
2018-11-26T03:22:31.165Z,57.17
2018-11-26T03:23:36.270Z,49.30
2018-11-26T03:24:41.341Z,48.08
2018-11-26T03:25:46.451Z,53.10
2018-11-26T03:26:51.566Z,57.20
2018-11-26T03:27:57.233Z,48.95
2018-11-26T03:29:02.884Z,52.60
2018-11-26T03:30:11.831Z,52.27
2018-11-26T03:31:17.113Z,48.02
2018-11-26T03:32:22.268Z,44.88
2018-11-26T03:33:27.418Z,50.35
2018-11-26T03:34:32.649Z,53.65
2018-11-26T03:35:37.727Z,49.45
2018-11-26T03:36:43.172Z,48.28
2018-11-26T03:37:48.359Z,41.00
2018-11-26T03:38:54.602Z,43.63
2018-11-26T03:39:59.732Z,42.03
2018-11-26T03:41:05.982Z,43.78
2018-11-26T03:42:11.021Z,41.23
2018-11-26T03:43:16.219Z,42.33
2018-11-26T03:44:22.215Z,41.98
2018-11-26T03:45:27.503Z,45.20
2018-11-26T03:46:32.719Z,40.08
2018-11-26T03:47:38.248Z,44.25
2018-11-26T03:48:43.548Z,41.35
2018-11-26T03:49:53.229Z,36.65
2018-11-26T03:50:58.339Z,40.88
2018-11-26T03:52:03.438Z,37.78
2018-11-26T03:53:08.620Z,35.95
2018-11-26T03:54:13.725Z,46.90
2018-11-26T03:55:19.663Z,38.33
2018-11-26T03:56:24.753Z,43.08
2018-11-26T03:57:29.911Z,36.08
2018-11-26T03:58:35.275Z,43.02
2018-11-26T03:59:40.484Z,43.28
2018-11-26T04:00:46.069Z,44.33
2018-11-26T04:01:51.222Z,39.95
2018-11-26T04:02:56.367Z,44.75
2018-11-26T04:04:01.601Z,46.88
2018-11-26T04:05:07.448Z,41.68
2018-11-26T04:06:13.749Z,39.92
2018-11-26T04:07:18.890Z,41.25
2018-11-26T04:08:25.008Z,42.23
2018-11-26T04:09:30.270Z,50.78
2018-11-26T04:10:35.422Z,43.40
2018-11-26T04:11:40.584Z,45.88
2018-11-26T04:12:45.728Z,47.43
2018-11-26T04:13:50.868Z,44.18
2018-11-26T04:14:56.075Z,54.27
2018-11-26T04:16:01.232Z,48.10
2018-11-26T04:17:07.159Z,53.10
2018-11-26T04:18:12.269Z,48.52
2018-11-26T04:19:17.351Z,50.08
2018-11-26T04:20:22.507Z,53.73
2018-11-26T04:21:27.637Z,47.88
2018-11-26T04:22:32.704Z,47.98
2018-11-26T04:23:37.799Z,46.95
2018-11-26T04:24:43.253Z,56.83
2018-11-26T04:25:48.418Z,50.48
2018-11-26T04:26:53.503Z,43.65
2018-11-26T04:27:59.641Z,50.33
2018-11-26T04:29:04.763Z,41.80
2018-11-26T04:30:12.413Z,47.75
2018-11-26T04:31:17.609Z,46.77
2018-11-26T04:32:22.776Z,49.30
2018-11-26T04:33:28.008Z,46.85
2018-11-26T04:34:33.245Z,44.73
2018-11-26T04:35:38.436Z,45.03
2018-11-26T04:36:43.752Z,48.65
2018-11-26T04:37:48.942Z,45.03
2018-11-26T04:38:54.204Z,46.65
2018-11-26T04:39:59.298Z,46.92
2018-11-26T04:41:04.453Z,53.17
2018-11-26T04:42:09.697Z,49.77
2018-11-26T04:43:14.937Z,48.33
2018-11-26T04:44:20.218Z,45.33
2018-11-26T04:45:26.243Z,46.60
2018-11-26T04:46:31.696Z,46.50
2018-11-26T04:47:36.944Z,51.60
2018-11-26T04:48:42.224Z,58.35
2018-11-26T04:49:47.326Z,55.52
2018-11-26T04:50:52.418Z,55.35
2018-11-26T04:51:57.495Z,55.45
2018-11-26T04:53:02.542Z,60.52
2018-11-26T04:54:07.561Z,61.83
2018-11-26T04:55:13.579Z,56.48
2018-11-26T04:56:18.962Z,58.35
2018-11-26T04:57:24.188Z,57.70
2018-11-26T04:58:29.356Z,67.45
2018-11-26T04:59:34.573Z,66.72
2018-11-26T05:00:39.740Z,67.25
2018-11-26T05:01:44.924Z,66.00
2018-11-26T05:02:50.065Z,69.47
2018-11-26T05:03:55.178Z,70.90
2018-11-26T05:05:00.243Z,62.27
2018-11-26T05:06:05.338Z,59.70
2018-11-26T05:07:10.545Z,56.48
2018-11-26T05:08:15.655Z,59.45
2018-11-26T05:09:21.390Z,60.90
2018-11-26T05:10:26.802Z,63.38
2018-11-26T05:11:31.995Z,57.30
2018-11-26T05:12:37.082Z,56.15
2018-11-26T05:13:42.151Z,55.08
2018-11-26T05:14:47.930Z,53.42
2018-11-26T05:15:53.794Z,52.43
2018-11-26T05:16:58.951Z,49.03
2018-11-26T05:18:04.083Z,44.93
2018-11-26T05:19:09.185Z,46.02
2018-11-26T05:20:15.046Z,52.23
2018-11-26T05:21:20.720Z,47.33
2018-11-26T05:22:26.311Z,47.43
2018-11-26T05:23:31.408Z,44.63
2018-11-26T05:24:36.492Z,44.83
2018-11-26T05:25:42.583Z,40.38
2018-11-26T05:26:47.701Z,44.63
2018-11-26T05:27:52.752Z,46.35
2018-11-26T05:28:57.820Z,45.85
2018-11-26T05:30:02.955Z,42.45
2018-11-26T05:31:08.212Z,50.12
2018-11-26T05:32:13.178Z,47.30
2018-11-26T05:33:18.177Z,47.88
2018-11-26T05:34:23.265Z,45.23
2018-11-26T05:35:28.322Z,51.88
2018-11-26T05:36:33.450Z,53.30
2018-11-26T05:37:40.114Z,57.78
2018-11-26T05:38:46.697Z,47.20
2018-11-26T05:39:51.946Z,42.65
2018-11-26T05:40:57.330Z,52.05
2018-11-26T05:42:02.366Z,48.98
2018-11-26T05:43:07.467Z,46.90
2018-11-26T05:44:12.689Z,52.40
2018-11-26T05:45:18.046Z,52.60
2018-11-26T05:46:23.123Z,48.58
2018-11-26T05:47:28.286Z,48.63
2018-11-26T05:48:33.986Z,40.58
2018-11-26T05:49:39.194Z,45.63
2018-11-26T05:50:44.339Z,45.88
2018-11-26T05:51:49.435Z,41.35
2018-11-26T05:52:54.583Z,36.88
2018-11-26T05:53:59.767Z,38.83
2018-11-26T05:55:05.970Z,37.95
2018-11-26T05:56:11.113Z,33.88
2018-11-26T05:57:16.670Z,31.97
2018-11-26T05:58:22.526Z,32.05
2018-11-26T05:59:27.707Z,37.20
2018-11-26T06:00:35.212Z,32.38
2018-11-26T06:01:47.405Z,35.45
2018-11-26T06:02:56.974Z,34.40
2018-11-26T06:04:02.145Z,35.03
2018-11-26T06:05:08.326Z,32.65
2018-11-26T06:06:13.413Z,33.85
2018-11-26T06:07:18.614Z,31.70
2018-11-26T06:08:23.899Z,37.38
2018-11-26T06:09:29.213Z,39.92
2018-11-26T06:10:34.296Z,35.95
2018-11-26T06:11:40.730Z,31.12
2018-11-26T06:12:45.835Z,32.90
2018-11-26T06:13:51.075Z,35.90
2018-11-26T06:14:56.350Z,33.28
2018-11-26T06:16:01.399Z,31.37
2018-11-26T06:17:06.948Z,34.03
2018-11-26T06:18:12.567Z,33.25
2018-11-26T06:19:17.815Z,35.52
2018-11-26T06:20:23.359Z,33.42
2018-11-26T06:21:29.053Z,35.28
2018-11-26T06:22:34.573Z,32.50
2018-11-26T06:23:39.823Z,34.83
2018-11-26T06:24:45.140Z,36.48
2018-11-26T06:25:50.418Z,36.35
2018-11-26T06:26:55.486Z,31.85
2018-11-26T06:28:00.574Z,30.65
2018-11-26T06:29:05.739Z,31.52
2018-11-26T06:30:12.657Z,31.00
2018-11-26T06:31:17.982Z,29.95
2018-11-26T06:32:23.455Z,34.10
2018-11-26T06:33:28.511Z,32.20
2018-11-26T06:34:34.206Z,32.17
2018-11-26T06:35:40.169Z,29.75
2018-11-26T06:36:45.276Z,30.37
2018-11-26T06:37:50.808Z,30.88
2018-11-26T06:38:56.354Z,30.90
2018-11-26T06:40:01.532Z,31.37
2018-11-26T06:41:06.748Z,32.33
2018-11-26T06:42:11.944Z,31.45
2018-11-26T06:43:17.492Z,31.37
2018-11-26T06:44:22.362Z,31.48
2018-11-26T06:45:27.536Z,31.52
2018-11-26T06:55:43.274Z,37.03
2018-11-26T06:56:48.396Z,31.33
2018-11-26T06:57:53.733Z,35.60
2018-11-26T06:58:58.951Z,33.10
2018-11-26T07:00:05.870Z,35.90
2018-11-26T07:01:11.605Z,40.60
2018-11-26T07:02:17.185Z,45.83
2018-11-26T07:03:22.436Z,38.38
2018-11-26T07:04:28.230Z,40.15
2018-11-26T07:05:33.428Z,41.55
2018-11-26T07:06:38.717Z,36.83
2018-11-26T07:07:44.327Z,40.52
2018-11-26T07:08:49.446Z,40.30
2018-11-26T07:09:54.601Z,38.95
2018-11-26T07:10:59.794Z,41.77
2018-11-26T07:12:05.013Z,42.20
2018-11-26T07:13:10.101Z,39.83
2018-11-26T07:14:15.332Z,39.75
2018-11-26T07:15:21.790Z,42.78
2018-11-26T07:16:27.015Z,36.63
2018-11-26T07:17:32.265Z,48.23
2018-11-26T07:18:37.386Z,40.33
2018-11-26T07:19:42.455Z,43.48
2018-11-26T07:20:48.271Z,41.70
2018-11-26T07:21:53.439Z,38.73
2018-11-26T07:22:58.549Z,38.10
2018-11-26T07:24:03.762Z,44.77
2018-11-26T07:25:12.094Z,38.78
2018-11-26T07:26:17.203Z,37.75
2018-11-26T07:27:22.417Z,45.80
2018-11-26T07:28:27.615Z,37.15
2018-11-26T07:29:32.849Z,37.20
2018-11-26T07:30:38.056Z,41.13
2018-11-26T07:31:43.303Z,37.48
2018-11-26T07:32:49.073Z,39.48
2018-11-26T07:33:54.365Z,42.78
2018-11-26T07:34:59.523Z,42.93
2018-11-26T07:36:10.977Z,41.15
2018-11-26T07:37:09.944Z,40.25
2018-11-26T07:38:15.273Z,43.25
2018-11-26T07:39:20.519Z,44.85
2018-11-26T07:40:25.623Z,47.00
2018-11-26T07:41:30.758Z,47.80
2018-11-26T07:42:35.962Z,44.93
2018-11-26T07:43:41.180Z,50.38
2018-11-26T07:44:46.518Z,54.33
2018-11-26T07:45:51.669Z,47.05
2018-11-26T07:46:56.855Z,51.37
2018-11-26T07:48:01.981Z,50.40
2018-11-26T07:49:07.607Z,42.27
2018-11-26T07:50:14.938Z,47.53
2018-11-26T07:51:19.979Z,43.75
2018-11-26T07:52:25.905Z,43.58
2018-11-26T07:53:32.250Z,40.48
2018-11-26T07:54:37.307Z,44.45
2018-11-26T07:55:42.490Z,40.65
2018-11-26T07:56:47.542Z,39.45
2018-11-26T07:57:52.598Z,40.92
2018-11-26T07:58:57.642Z,43.13
2018-11-26T08:00:02.727Z,42.20
2018-11-26T08:01:07.887Z,42.80
2018-11-26T08:02:12.951Z,46.20
2018-11-26T08:03:18.169Z,43.60
2018-11-26T08:04:23.423Z,41.98
2018-11-26T08:05:28.461Z,38.40
2018-11-26T08:06:33.584Z,44.88
2018-11-26T08:07:38.658Z,39.00
2018-11-26T08:08:43.710Z,43.78
2018-11-26T08:09:48.710Z,42.35
2018-11-26T08:10:54.784Z,45.20
2018-11-26T08:11:59.938Z,43.35
2018-11-26T08:13:05.126Z,42.80
2018-11-26T08:14:10.613Z,38.15
2018-11-26T08:15:17.971Z,44.88
2018-11-26T08:16:23.054Z,49.00
2018-11-26T08:17:28.180Z,49.83
2018-11-26T08:18:33.241Z,51.00
2018-11-26T08:19:38.349Z,42.55
2018-11-26T08:20:43.824Z,46.20
2018-11-26T08:21:48.985Z,46.28
2018-11-26T08:22:54.202Z,51.53
2018-11-26T08:23:59.382Z,44.80
2018-11-26T08:25:04.719Z,45.38
2018-11-26T08:26:09.971Z,43.80
2018-11-26T08:27:15.117Z,41.88
2018-11-26T08:28:20.365Z,41.30
2018-11-26T08:29:25.534Z,42.20
2018-11-26T08:30:30.666Z,41.33
2018-11-26T08:31:35.795Z,43.17
2018-11-26T08:32:40.951Z,37.42
2018-11-26T08:33:46.040Z,42.53
2018-11-26T08:34:51.280Z,41.55
2018-11-26T08:36:01.342Z,41.37
2018-11-26T08:37:10.672Z,39.33
2018-11-26T08:38:21.013Z,42.70
2018-11-26T08:40:01.577Z,34.20
2018-11-26T08:41:13.927Z,36.08
2018-11-26T08:42:27.712Z,33.95
2018-11-26T08:43:39.724Z,35.92
2018-11-26T08:44:46.814Z,32.53
2018-11-26T08:45:56.668Z,31.17
2018-11-26T08:47:04.700Z,32.53
2018-11-26T08:48:14.678Z,33.85
2018-11-26T08:49:24.686Z,30.68
2018-11-26T08:50:29.884Z,36.30
2018-11-26T08:51:35.279Z,28.38
2018-11-26T08:52:41.535Z,30.48
2018-11-26T08:53:46.735Z,26.73
2018-11-26T08:54:51.922Z,27.27
2018-11-26T08:55:57.168Z,30.17
2018-11-26T08:57:02.448Z,31.75
2018-11-26T08:58:07.887Z,33.63
2018-11-26T08:59:13.192Z,32.33
2018-11-26T09:00:18.346Z,27.80
2018-11-26T09:01:28.488Z,29.15
2018-11-26T09:02:37.781Z,33.60
2018-11-26T09:03:47.889Z,28.73
2018-11-26T09:04:58.099Z,30.05
2018-11-26T09:06:04.074Z,32.13
2018-11-26T09:07:09.288Z,31.02
2018-11-26T09:08:15.533Z,35.33
2018-11-26T09:09:20.692Z,36.98
2018-11-26T09:10:25.973Z,34.05
2018-11-26T09:11:31.146Z,38.25
2018-11-26T09:12:36.473Z,36.35
2018-11-26T09:13:42.699Z,41.33
2018-11-26T09:14:47.892Z,37.13
2018-11-26T09:15:53.136Z,32.10
2018-11-26T09:16:58.340Z,34.53
2018-11-26T09:18:03.613Z,35.30
2018-11-26T09:19:08.859Z,33.33
2018-11-26T09:20:14.051Z,29.77
2018-11-26T09:21:19.286Z,36.63
2018-11-26T09:22:24.481Z,33.13
2018-11-26T09:23:29.582Z,33.95
2018-11-26T09:24:34.927Z,33.10
2018-11-26T09:25:40.195Z,32.13
2018-11-26T09:26:45.365Z,31.70
2018-11-26T09:27:50.582Z,37.53
2018-11-26T09:28:55.848Z,32.42
2018-11-26T09:30:01.199Z,29.57
2018-11-26T09:31:07.871Z,31.35
2018-11-26T09:32:13.187Z,37.70
2018-11-26T09:33:18.553Z,35.33
2018-11-26T09:34:23.735Z,30.97
2018-11-26T09:35:29.025Z,31.65
2018-11-26T09:36:34.255Z,30.50
2018-11-26T09:37:39.648Z,31.45
2018-11-26T09:38:44.862Z,32.60
2018-11-26T09:39:50.091Z,33.92
2018-11-26T09:40:55.764Z,31.33
2018-11-26T09:42:00.992Z,33.08
2018-11-26T09:43:07.438Z,39.70
2018-11-26T09:44:12.704Z,33.92
2018-11-26T09:45:18.900Z,33.05
2018-11-26T09:46:24.222Z,38.30
2018-11-26T09:47:29.434Z,36.63
2018-11-26T09:48:34.758Z,39.53
2018-11-26T09:49:39.925Z,34.63
2018-11-26T09:50:45.085Z,36.42
2018-11-26T09:51:50.278Z,36.98
2018-11-26T09:52:55.893Z,43.20
2018-11-26T09:54:01.524Z,35.65
2018-11-26T09:55:06.832Z,42.03
2018-11-26T09:56:12.145Z,35.92
2018-11-26T09:57:17.400Z,37.30
2018-11-26T09:58:22.602Z,34.63
2018-11-26T09:59:28.544Z,36.68
2018-11-26T10:00:33.739Z,35.28
2018-11-26T10:01:38.955Z,37.25
2018-11-26T10:02:45.330Z,34.60
2018-11-26T10:03:50.548Z,38.73
2018-11-26T10:04:55.880Z,39.27
2018-11-26T10:06:01.241Z,39.60
2018-11-26T10:07:06.847Z,34.45
2018-11-26T10:08:12.135Z,32.88
2018-11-26T10:09:17.252Z,35.70
2018-11-26T10:10:22.474Z,36.35
2018-11-26T10:11:27.616Z,36.00
2018-11-26T10:12:32.849Z,33.18
2018-11-26T10:13:38.200Z,44.63
2018-11-26T10:14:43.776Z,37.73
2018-11-26T10:15:49.107Z,40.30
2018-11-26T10:16:54.408Z,36.80
2018-11-26T10:17:59.615Z,35.80
2018-11-26T10:19:04.835Z,38.28
2018-11-26T10:20:10.926Z,34.43
2018-11-26T10:21:16.163Z,35.90
2018-11-26T10:22:21.487Z,37.65
2018-11-26T10:23:26.608Z,42.95
2018-11-26T10:24:31.844Z,36.25
2018-11-26T10:25:37.031Z,44.20
2018-11-26T10:26:42.195Z,39.85
2018-11-26T10:27:47.325Z,37.28
2018-11-26T10:28:52.539Z,43.00
2018-11-26T10:29:57.729Z,34.43
2018-11-26T10:31:02.908Z,34.03
2018-11-26T10:32:08.136Z,33.48
2018-11-26T10:33:14.838Z,30.95
2018-11-26T10:34:18.547Z,28.42
2018-11-26T10:35:24.226Z,25.68
2018-11-26T10:36:29.442Z,25.43
2018-11-26T10:37:34.654Z,24.40
2018-11-26T10:38:40.796Z,23.40
2018-11-26T10:39:45.947Z,23.45
2018-11-26T10:40:51.795Z,21.40
2018-11-26T10:41:57.705Z,25.23
2018-11-26T10:43:02.913Z,24.95
2018-11-26T10:44:08.186Z,21.50
2018-11-26T10:45:14.653Z,24.63
2018-11-26T10:46:19.780Z,23.45
2018-11-26T10:47:24.927Z,23.92
2018-11-26T10:48:30.062Z,23.10
2018-11-26T10:49:35.132Z,23.92
2018-11-26T10:50:40.295Z,24.65
2018-11-26T10:51:45.545Z,29.07
2018-11-26T10:52:54.848Z,24.70
2018-11-26T10:54:00.039Z,24.57
2018-11-26T10:55:05.404Z,27.35
2018-11-26T10:56:10.613Z,30.20
2018-11-26T10:57:15.843Z,27.87
2018-11-26T10:58:21.035Z,29.95
2018-11-26T10:59:26.232Z,30.43
2018-11-26T11:00:36.408Z,29.30
2018-11-26T11:01:47.217Z,31.57
2018-11-26T11:02:52.844Z,25.02
2018-11-26T11:03:58.052Z,26.87
2018-11-26T11:05:03.118Z,28.25
2018-11-26T11:06:08.230Z,25.95
2018-11-26T11:07:13.404Z,26.45
2018-11-26T11:08:18.709Z,29.72
2018-11-26T11:09:23.946Z,26.73
2018-11-26T11:10:30.524Z,29.02
2018-11-26T11:11:35.749Z,23.60
2018-11-26T11:12:41.048Z,25.23
2018-11-26T11:13:46.400Z,24.77
2018-11-26T11:14:51.615Z,22.55
2018-11-26T11:15:56.829Z,24.75
2018-11-26T11:17:02.034Z,26.05
2018-11-26T11:18:08.485Z,30.77
2018-11-26T11:19:13.702Z,25.27
2018-11-26T11:20:23.503Z,27.37
2018-11-26T11:21:28.708Z,24.85
2018-11-26T11:22:33.940Z,25.08
2018-11-26T11:23:39.065Z,25.72
2018-11-26T11:24:44.384Z,29.23
2018-11-26T11:25:49.577Z,23.32
2018-11-26T11:26:54.745Z,28.27
2018-11-26T11:27:59.967Z,26.55
2018-11-26T11:29:05.183Z,24.65
2018-11-26T11:30:13.806Z,22.73
2018-11-26T11:31:19.039Z,29.67
2018-11-26T11:32:24.114Z,25.75
2018-11-26T11:33:29.296Z,27.30
2018-11-26T11:34:34.410Z,26.40
2018-11-26T11:35:39.588Z,27.82
2018-11-26T11:36:44.757Z,28.73
2018-11-26T11:37:50.680Z,32.05
2018-11-26T11:38:55.902Z,25.90
2018-11-26T11:40:01.160Z,25.97
2018-11-26T11:41:06.691Z,24.52
2018-11-26T11:42:11.838Z,29.30
2018-11-26T11:43:17.040Z,23.30
2018-11-26T11:44:25.890Z,24.47
2018-11-26T11:45:32.372Z,26.27
2018-11-26T11:46:37.908Z,27.22
2018-11-26T11:47:43.316Z,27.02
2018-11-26T11:48:52.599Z,25.95
2018-11-26T11:49:57.923Z,29.92
2018-11-26T11:51:03.267Z,26.35
2018-11-26T11:52:08.729Z,29.55
2018-11-26T11:53:14.007Z,25.70
2018-11-26T11:54:19.756Z,29.67
2018-11-26T11:55:26.112Z,27.25
2018-11-26T11:56:31.345Z,25.77
2018-11-26T11:57:36.679Z,27.35
2018-11-26T11:58:41.894Z,26.87
2018-11-26T11:59:47.085Z,27.27
2018-11-26T12:00:52.456Z,26.87
2018-11-26T12:01:57.618Z,26.75
2018-11-26T12:03:05.329Z,29.42
2018-11-26T12:04:10.545Z,28.87
2018-11-26T12:05:16.479Z,27.45
2018-11-26T12:06:22.625Z,26.42
2018-11-26T12:07:27.815Z,26.30
2018-11-26T12:08:33.051Z,24.30
2018-11-26T12:09:39.121Z,26.62
2018-11-26T12:10:44.433Z,24.70
2018-11-26T12:11:49.624Z,23.75
2018-11-26T12:12:55.335Z,23.32
2018-11-26T12:14:00.593Z,23.92
2018-11-26T12:15:08.135Z,24.07
2018-11-26T12:16:13.352Z,23.22
2018-11-26T12:17:19.653Z,24.02
2018-11-26T12:18:25.382Z,24.27
2018-11-26T12:19:30.600Z,25.50
2018-11-26T12:20:36.235Z,23.25
2018-11-26T12:21:45.270Z,23.60
2018-11-26T12:22:50.504Z,21.42
2018-11-26T12:23:56.301Z,23.87
2018-11-26T12:25:01.573Z,22.05
2018-11-26T12:26:07.704Z,27.45
2018-11-26T12:27:13.404Z,26.73
2018-11-26T12:28:18.519Z,25.08
2018-11-26T12:29:23.720Z,24.30
2018-11-26T12:30:30.109Z,26.05
2018-11-26T12:31:35.177Z,24.57
2018-11-26T12:32:40.389Z,24.95
2018-11-26T12:33:45.559Z,21.97
2018-11-26T12:34:50.758Z,20.65
2018-11-26T12:35:56.052Z,24.60
2018-11-26T12:37:02.026Z,18.17
2018-11-26T12:38:07.200Z,18.98
2018-11-26T12:39:12.356Z,18.98
2018-11-26T12:40:25.883Z,22.70
2018-11-26T12:41:31.115Z,19.10
2018-11-26T12:42:36.240Z,18.45
2018-11-26T12:43:41.363Z,19.27
2018-11-26T12:44:50.908Z,20.27
2018-11-26T12:45:56.896Z,21.10
2018-11-26T12:47:02.071Z,20.23
2018-11-26T12:48:07.499Z,19.95
2018-11-26T12:49:12.764Z,21.57
2018-11-26T12:50:18.114Z,20.27
2018-11-26T12:51:24.372Z,20.62
2018-11-26T12:52:29.819Z,20.75
2018-11-26T12:53:35.140Z,18.23
2018-11-26T12:54:40.277Z,22.42
2018-11-26T12:55:45.886Z,19.12
2018-11-26T12:56:51.085Z,21.93
2018-11-26T12:57:57.265Z,21.37
2018-11-26T12:59:02.422Z,18.85
2018-11-26T13:00:11.390Z,23.45
2018-11-26T13:01:17.009Z,22.02
2018-11-26T13:02:22.913Z,21.80
2018-11-26T13:03:28.125Z,21.50
2018-11-26T13:04:33.444Z,20.00
2018-11-26T13:05:38.707Z,19.90
2018-11-26T13:06:43.963Z,18.77
2018-11-26T13:07:49.237Z,19.10
2018-11-26T13:08:55.181Z,22.02
2018-11-26T13:10:00.407Z,22.60
2018-11-26T13:11:05.624Z,21.35
2018-11-26T13:12:10.870Z,23.65
2018-11-26T13:13:16.087Z,25.10
2018-11-26T13:14:21.845Z,21.20
2018-11-26T13:15:28.315Z,20.75
2018-11-26T13:16:33.584Z,20.52
2018-11-26T13:17:39.568Z,21.70
2018-11-26T13:18:45.137Z,20.30
2018-11-26T13:19:50.335Z,17.65
2018-11-26T13:20:55.497Z,17.85
2018-11-26T13:22:00.843Z,21.37
2018-11-26T13:23:07.434Z,20.65
2018-11-26T13:24:12.633Z,19.73
2018-11-26T13:25:19.006Z,21.93
2018-11-26T13:26:24.208Z,19.30
2018-11-26T13:27:30.466Z,20.55
2018-11-26T13:28:35.674Z,22.58
2018-11-26T13:29:40.881Z,23.25
2018-11-26T13:30:48.130Z,22.02
2018-11-26T13:31:53.393Z,21.50
2018-11-26T13:33:00.702Z,19.80
2018-11-26T13:34:06.319Z,18.98
2018-11-26T13:35:12.909Z,22.25
2018-11-26T13:36:18.276Z,19.07
2018-11-26T13:37:23.568Z,24.50
2018-11-26T13:38:28.659Z,18.95
2018-11-26T13:39:33.940Z,21.42
2018-11-26T13:40:39.190Z,18.25
2018-11-26T13:41:44.560Z,21.40
2018-11-26T13:42:50.262Z,20.00
2018-11-26T13:43:55.646Z,20.20
2018-11-26T13:45:00.868Z,19.02
2018-11-26T13:46:06.994Z,20.55
2018-11-26T13:47:12.912Z,22.80
2018-11-26T13:48:19.175Z,25.17
2018-11-26T13:49:24.261Z,21.73
2018-11-26T13:50:34.885Z,20.55
2018-11-26T13:51:40.123Z,20.17
2018-11-26T13:52:45.390Z,21.10
2018-11-26T13:53:50.605Z,23.05
2018-11-26T13:54:55.769Z,21.12
2018-11-26T13:56:00.972Z,21.25
2018-11-26T13:57:06.860Z,18.55
2018-11-26T13:58:13.099Z,20.40
2018-11-26T13:59:19.137Z,21.23
2018-11-26T14:00:24.408Z,20.92
2018-11-26T14:01:29.645Z,21.50
2018-11-26T14:02:34.854Z,19.00
2018-11-26T14:03:40.396Z,18.02
2018-11-26T14:04:46.014Z,20.77
2018-11-26T14:05:51.094Z,19.07
2018-11-26T14:06:56.810Z,22.07
2018-11-26T14:08:02.127Z,19.02
2018-11-26T14:09:10.052Z,18.92
2018-11-26T14:10:19.475Z,19.02
2018-11-26T14:11:24.660Z,19.98
2018-11-26T14:12:29.911Z,20.37
2018-11-26T14:13:35.064Z,18.00
2018-11-26T14:14:40.224Z,20.62
2018-11-26T14:15:45.476Z,18.20